createdAt,value
2022-08-21T00:02:15.088Z,100463.31
2022-08-21T00:04:56.514Z,100470.63
2022-08-21T00:07:27.366Z,100472.13
2022-08-21T00:09:56.764Z,100461.47
2022-08-21T00:12:28.332Z,100465.81
2022-08-21T00:14:58.231Z,100465.31
2022-08-21T00:17:27.920Z,100463.94
2022-08-21T00:19:56.908Z,100468.50
2022-08-21T00:22:25.930Z,100466.69
2022-08-21T00:24:54.934Z,100466.13
2022-08-21T00:27:23.927Z,100460.28
2022-08-21T00:29:54.774Z,100467.41
2022-08-21T00:32:26.095Z,100462.53
2022-08-21T00:34:55.828Z,100462.63
2022-08-21T00:37:25.290Z,100456.50
2022-08-21T00:39:54.595Z,100452.97
2022-08-21T00:42:23.616Z,100452.75
2022-08-21T00:44:54.299Z,100455.69
2022-08-21T00:47:23.286Z,100458.19
2022-08-21T00:49:52.360Z,100459.13
2022-08-21T00:52:26.789Z,100457.19
2022-08-21T00:54:57.859Z,100458.66
2022-08-21T00:57:31.182Z,100454.75
2022-08-21T01:00:03.387Z,100457.94
2022-08-21T01:02:32.732Z,100458.47
2022-08-21T01:05:01.701Z,100457.06
2022-08-21T01:07:32.305Z,100457.63
2022-08-21T01:10:01.603Z,100452.84
2022-08-21T01:12:31.746Z,100466.97
2022-08-21T01:15:04.817Z,100465.97
2022-08-21T01:17:34.494Z,100466.06
2022-08-21T01:20:07.157Z,100466.63
2022-08-21T01:22:38.246Z,100464.66
2022-08-21T01:25:09.673Z,100459.84
2022-08-21T01:27:39.673Z,100461.56
2022-08-21T01:30:15.901Z,100457.91
2022-08-21T01:32:45.602Z,100460.81
2022-08-21T01:35:16.227Z,100459.81
2022-08-21T01:37:46.630Z,100459.56
2022-08-21T01:40:18.596Z,100459.56
2022-08-21T01:42:49.676Z,100455.91
2022-08-21T01:45:19.044Z,100462.06
2022-08-21T01:47:48.090Z,100456.31
2022-08-21T01:50:19.345Z,100458.81
2022-08-21T01:52:51.300Z,100454.25
2022-08-21T01:55:21.810Z,100455.22
2022-08-21T01:57:51.738Z,100456.19
2022-08-21T02:00:23.854Z,100461.59
2022-08-21T02:02:53.712Z,100464.97
2022-08-21T02:05:22.923Z,100457.66
2022-08-21T02:07:54.883Z,100460.44
2022-08-21T02:10:27.616Z,100458.72
2022-08-21T02:12:57.665Z,100457.38
2022-08-21T02:15:26.842Z,100454.75
2022-08-21T02:17:58.656Z,100460.25
2022-08-21T02:20:30.086Z,100458.25
2022-08-21T02:23:01.441Z,100464.00
2022-08-21T02:25:31.450Z,100465.38
2022-08-21T02:28:02.786Z,100465.16
2022-08-21T02:30:36.208Z,100466.09
2022-08-21T02:33:05.494Z,100465.34
2022-08-21T02:35:34.579Z,100455.41
2022-08-21T02:38:07.644Z,100468.41
2022-08-21T02:40:48.320Z,100471.88
2022-08-21T02:43:22.565Z,100464.00
2022-08-21T02:45:53.314Z,100459.91
2022-08-21T02:48:25.525Z,100468.38
2022-08-21T02:50:57.257Z,100471.16
2022-08-21T02:53:28.549Z,100471.25
2022-08-21T02:55:59.704Z,100474.50
2022-08-21T02:58:32.341Z,100469.19
2022-08-21T03:01:01.510Z,100471.25
2022-08-21T03:03:30.778Z,100468.63
2022-08-21T03:05:59.842Z,100478.47
2022-08-21T03:08:30.246Z,100479.50
2022-08-21T03:11:02.066Z,100478.13
2022-08-21T03:13:31.251Z,100479.19
2022-08-21T03:16:00.315Z,100485.53
2022-08-21T03:18:29.318Z,100472.66
2022-08-21T03:20:58.341Z,100479.78
2022-08-21T03:23:32.502Z,100480.22
2022-08-21T03:26:03.419Z,100475.22
2022-08-21T03:28:32.368Z,100474.31
2022-08-21T03:31:01.639Z,100468.41
2022-08-21T03:33:30.645Z,100469.06
2022-08-21T03:36:04.006Z,100470.47
2022-08-21T03:38:34.956Z,100482.47
2022-08-21T03:41:08.182Z,100478.34
2022-08-21T03:43:37.996Z,100474.47
2022-08-21T03:46:08.293Z,100471.47
2022-08-21T03:48:39.630Z,100476.03
2022-08-21T03:51:09.408Z,100477.09
2022-08-21T03:53:38.803Z,100475.09
2022-08-21T03:56:09.559Z,100485.53
2022-08-21T03:58:39.379Z,100480.38
2022-08-21T04:01:08.645Z,100480.03
2022-08-21T04:03:38.630Z,100478.78
2022-08-21T04:06:08.788Z,100487.50
2022-08-21T04:08:37.842Z,100476.78
2022-08-21T04:11:08.851Z,100477.44
2022-08-21T04:13:43.235Z,100485.16
2022-08-21T04:16:14.024Z,100472.53
2022-08-21T04:18:43.808Z,100480.16
2022-08-21T04:21:14.621Z,100479.69
2022-08-21T04:23:44.271Z,100464.03
2022-08-21T04:26:14.795Z,100474.56
2022-08-21T04:28:44.900Z,100473.19
2022-08-21T04:31:14.266Z,100468.94
2022-08-21T04:33:43.395Z,100478.06
2022-08-21T04:36:12.691Z,100468.03
2022-08-21T04:38:43.201Z,100470.75
2022-08-21T04:41:15.389Z,100477.84
2022-08-21T04:43:44.757Z,100483.97
2022-08-21T04:46:14.270Z,100477.91
2022-08-21T04:48:43.913Z,100487.47
2022-08-21T04:51:17.719Z,100489.53
2022-08-21T04:53:49.570Z,100488.69
2022-08-21T04:56:26.077Z,100479.34
2022-08-21T04:58:57.926Z,100482.06
2022-08-21T05:01:31.215Z,100486.41
2022-08-21T05:04:02.553Z,100476.88
2022-08-21T05:06:35.838Z,100483.97
2022-08-21T05:09:07.093Z,100486.03
2022-08-21T05:11:39.404Z,100478.75
2022-08-21T05:14:08.689Z,100479.38
2022-08-21T05:16:38.055Z,100480.41
2022-08-21T05:19:07.538Z,100483.13
2022-08-21T05:21:37.222Z,100481.28
2022-08-21T05:24:06.481Z,100466.66
2022-08-21T05:26:38.284Z,100476.13
2022-08-21T05:29:18.302Z,100472.63
2022-08-21T05:31:49.067Z,100471.16
2022-08-21T05:34:21.885Z,100467.78
2022-08-21T05:36:51.230Z,100465.78
2022-08-21T05:39:20.392Z,100467.00
2022-08-21T05:41:50.348Z,100467.47
2022-08-21T05:44:20.841Z,100464.41
2022-08-21T05:46:51.474Z,100459.84
2022-08-21T05:49:20.744Z,100461.69
2022-08-21T05:51:49.765Z,100464.16
2022-08-21T05:54:18.827Z,100462.22
2022-08-21T05:56:47.801Z,100454.84
2022-08-21T05:59:17.132Z,100458.56
2022-08-21T06:01:47.550Z,100453.13
2022-08-21T06:04:17.316Z,100449.94
2022-08-21T06:06:46.312Z,100460.16
2022-08-21T06:09:15.508Z,100460.16
2022-08-21T06:11:44.531Z,100456.59
2022-08-21T06:14:16.945Z,100459.25
2022-08-21T06:16:47.370Z,100460.31
2022-08-21T06:19:16.527Z,100454.84
2022-08-21T06:21:45.514Z,100464.91
2022-08-21T06:24:14.901Z,100453.72
2022-08-21T06:26:44.021Z,100461.97
2022-08-21T06:29:13.626Z,100460.63
2022-08-21T06:31:42.758Z,100457.72
2022-08-21T06:34:13.228Z,100456.19
2022-08-21T06:36:42.262Z,100447.69
2022-08-21T06:39:25.325Z,100447.50
2022-08-21T06:41:59.909Z,100438.84
2022-08-21T06:44:31.997Z,100432.16
2022-08-21T06:47:00.952Z,100440.00
2022-08-21T06:49:31.527Z,100441.50
2022-08-21T06:52:02.564Z,100437.31
2022-08-21T06:54:31.944Z,100429.34
2022-08-21T06:57:00.915Z,100429.06
2022-08-21T06:59:29.915Z,100428.59
2022-08-21T07:01:59.016Z,100431.25
2022-08-21T07:04:28.582Z,100426.72
2022-08-21T07:06:59.500Z,100430.50
2022-08-21T07:09:28.561Z,100431.25
2022-08-21T07:11:58.866Z,100425.09
2022-08-21T07:14:28.274Z,100426.88
2022-08-21T07:16:57.254Z,100425.31
2022-08-21T07:19:26.321Z,100431.13
2022-08-21T07:22:00.591Z,100428.84
2022-08-21T07:24:30.379Z,100426.03
2022-08-21T07:26:59.371Z,100433.75
2022-08-21T07:29:28.388Z,100416.50
2022-08-21T07:31:57.898Z,100430.22
2022-08-21T07:34:27.003Z,100423.75
2022-08-21T07:36:56.066Z,100428.72
2022-08-21T07:39:26.843Z,100421.03
2022-08-21T07:41:55.820Z,100425.28
2022-08-21T07:44:24.981Z,100420.91
2022-08-21T07:46:54.104Z,100418.41
2022-08-21T07:49:23.099Z,100411.53
2022-08-21T07:51:52.121Z,100409.91
2022-08-21T07:54:33.619Z,100409.47
2022-08-21T07:57:05.383Z,100408.13
2022-08-21T07:59:34.336Z,100411.69
2022-08-21T08:02:03.507Z,100404.47
2022-08-21T08:04:33.312Z,100402.41
2022-08-21T08:07:03.937Z,100406.47
2022-08-21T08:09:32.874Z,100404.13
2022-08-21T08:12:02.087Z,100402.44
2022-08-21T08:14:32.469Z,100411.25
2022-08-21T08:17:02.367Z,100396.88
2022-08-21T08:19:31.610Z,100403.50
2022-08-21T08:22:00.737Z,100398.28
2022-08-21T08:24:29.882Z,100395.28
2022-08-21T08:26:59.002Z,100388.91
2022-08-21T08:29:28.198Z,100396.19
2022-08-21T08:32:00.405Z,100384.03
2022-08-21T08:34:29.366Z,100387.91
2022-08-21T08:36:58.981Z,100385.78
2022-08-21T08:39:29.642Z,100388.69
2022-08-21T08:42:32.243Z,100384.69
2022-08-21T08:45:07.379Z,100373.50
2022-08-21T08:47:42.741Z,100377.13
2022-08-21T08:50:19.112Z,100377.59
2022-08-21T08:52:52.280Z,100372.59
2022-08-21T08:55:27.487Z,100371.19
2022-08-21T08:57:57.691Z,100358.06
2022-08-21T09:00:26.983Z,100366.91
2022-08-21T09:03:01.295Z,100368.16
2022-08-21T09:05:38.503Z,100367.78
2022-08-21T09:08:23.161Z,100360.69
2022-08-21T09:11:03.050Z,100349.22
2022-08-21T09:13:43.898Z,100349.59
2022-08-21T09:16:23.118Z,100358.56
2022-08-21T09:19:01.864Z,100358.44
2022-08-21T09:21:38.873Z,100354.22
2022-08-21T09:24:25.305Z,100347.91
2022-08-21T09:27:01.118Z,100364.94
2022-08-21T09:29:34.387Z,100360.88
2022-08-21T09:32:18.410Z,100360.06
2022-08-21T09:35:00.580Z,100364.38
2022-08-21T09:37:31.533Z,100362.16
2022-08-21T09:40:01.386Z,100357.03
2022-08-21T09:42:34.022Z,100353.03
2022-08-21T09:45:15.695Z,100342.69
2022-08-21T09:47:46.666Z,100343.56
2022-08-21T09:50:20.723Z,100342.16
2022-08-21T09:52:53.163Z,100343.34
2022-08-21T09:55:54.176Z,100352.81
2022-08-21T09:58:31.951Z,100348.63
2022-08-21T10:01:02.979Z,100340.84
2022-08-21T10:03:32.038Z,100351.56
2022-08-21T10:06:09.356Z,100357.94
2022-08-21T10:08:40.850Z,100349.53
2022-08-21T10:11:12.082Z,100350.13
2022-08-21T10:13:55.079Z,100358.22
2022-08-21T10:16:35.094Z,100345.63
2022-08-21T10:19:12.639Z,100354.00
2022-08-21T10:21:59.489Z,100343.81
2022-08-21T10:24:34.052Z,100334.66
2022-08-21T10:27:17.451Z,100334.72
2022-08-21T10:29:55.220Z,100339.84
2022-08-21T10:32:38.210Z,100332.03
2022-08-21T10:35:13.011Z,100326.66
2022-08-21T10:38:00.498Z,100319.25
2022-08-21T10:40:37.149Z,100322.09
2022-08-21T10:43:18.678Z,100327.84
2022-08-21T10:45:58.393Z,100322.75
2022-08-21T10:48:31.982Z,100322.88
2022-08-21T10:51:11.978Z,100330.38
2022-08-21T10:53:58.206Z,100314.69
2022-08-21T10:56:30.839Z,100321.16
2022-08-21T10:59:12.455Z,100320.69
2022-08-21T11:01:49.610Z,100304.22
2022-08-21T11:04:26.380Z,100311.34
2022-08-21T11:07:09.263Z,100302.97
2022-08-21T11:09:50.495Z,100304.94
2022-08-21T11:12:28.648Z,100316.09
2022-08-21T11:15:03.167Z,100303.19
2022-08-21T11:17:38.189Z,100308.31
2022-08-21T11:20:12.360Z,100307.94
2022-08-21T11:22:48.520Z,100309.97
2022-08-21T11:25:25.634Z,100306.81
2022-08-21T11:28:14.351Z,100303.19
2022-08-21T11:30:52.827Z,100309.16
2022-08-21T11:33:42.829Z,100302.94
2022-08-21T11:36:18.206Z,100312.22
2022-08-21T11:38:54.258Z,100302.81
2022-08-21T11:41:32.058Z,100301.38
2022-08-21T11:44:14.089Z,100299.72
2022-08-21T11:46:49.547Z,100302.50
2022-08-21T11:49:36.633Z,100300.97
2022-08-21T11:52:15.261Z,100311.34
2022-08-21T11:54:49.410Z,100304.63
2022-08-21T11:57:23.265Z,100306.31
2022-08-21T11:59:58.344Z,100311.69
2022-08-21T12:02:33.893Z,100316.97
2022-08-21T12:05:08.352Z,100313.69
2022-08-21T12:07:40.940Z,100310.53
2022-08-21T12:10:13.099Z,100306.66
2022-08-21T12:12:46.098Z,100311.13
2022-08-21T12:15:31.141Z,100315.97
2022-08-21T12:18:03.176Z,100310.22
2022-08-21T12:20:50.188Z,100309.97
2022-08-21T12:23:32.724Z,100308.16
2022-08-21T12:26:05.819Z,100315.22
2022-08-21T12:28:36.375Z,100305.00
2022-08-21T12:31:05.506Z,100311.19
2022-08-21T12:33:37.538Z,100297.34
2022-08-21T12:36:10.228Z,100304.94
2022-08-21T12:38:47.799Z,100294.75
2022-08-21T12:41:21.508Z,100282.16
2022-08-21T12:43:59.456Z,100288.88
2022-08-21T12:46:35.010Z,100285.28
2022-08-21T12:49:10.696Z,100286.75
2022-08-21T12:51:51.344Z,100283.78
2022-08-21T12:54:28.131Z,100281.38
2022-08-21T12:57:02.997Z,100282.69
2022-08-21T12:59:34.936Z,100282.03
2022-08-21T13:02:11.810Z,100296.56
2022-08-21T13:04:43.657Z,100287.75
2022-08-21T13:07:15.322Z,100288.97
2022-08-21T13:09:50.103Z,100290.03
2022-08-21T13:12:19.932Z,100288.22
2022-08-21T13:14:52.248Z,100290.13
2022-08-21T13:17:25.736Z,100290.19
2022-08-21T13:19:57.842Z,100289.47
2022-08-21T13:22:34.942Z,100284.28
2022-08-21T13:25:11.610Z,100276.31
2022-08-21T13:27:41.230Z,100288.03
2022-08-21T13:30:15.149Z,100283.06
2022-08-21T13:32:46.358Z,100291.19
2022-08-21T13:35:21.239Z,100285.19
2022-08-21T13:37:52.949Z,100287.16
2022-08-21T13:40:26.906Z,100289.56
2022-08-21T13:42:57.079Z,100285.22
2022-08-21T13:45:32.906Z,100295.72
2022-08-21T13:48:06.146Z,100279.00
2022-08-21T13:50:38.892Z,100282.44
2022-08-21T13:53:10.265Z,100286.91
2022-08-21T13:55:42.990Z,100277.69
2022-08-21T13:58:13.307Z,100282.25
2022-08-21T14:00:51.393Z,100271.66
2022-08-21T14:03:30.860Z,100270.66
2022-08-21T14:06:00.611Z,100270.66
2022-08-21T14:08:35.497Z,100270.09
2022-08-21T14:11:07.123Z,100268.28
2022-08-21T14:13:42.445Z,100254.97
2022-08-21T14:16:20.202Z,100253.09
2022-08-21T14:18:56.425Z,100261.00
2022-08-21T14:21:34.136Z,100259.56
2022-08-21T14:24:09.456Z,100255.38
2022-08-21T14:26:48.176Z,100248.16
2022-08-21T14:29:20.185Z,100247.94
2022-08-21T14:31:56.295Z,100253.50
2022-08-21T14:34:30.761Z,100253.13
2022-08-21T14:37:02.074Z,100249.31
2022-08-21T14:39:31.260Z,100253.53
2022-08-21T14:42:01.952Z,100256.91
2022-08-21T14:44:31.170Z,100259.19
2022-08-21T14:47:02.075Z,100254.38
2022-08-21T14:49:31.353Z,100248.22
2022-08-21T14:52:00.780Z,100253.34
2022-08-21T14:54:32.872Z,100253.09
2022-08-21T14:57:05.191Z,100251.97
2022-08-21T14:59:35.004Z,100241.63
2022-08-21T15:02:06.276Z,100235.13
2022-08-21T15:04:36.225Z,100243.88
2022-08-21T15:07:05.819Z,100243.66
2022-08-21T15:09:34.938Z,100238.06
2022-08-21T15:12:05.527Z,100236.16
2022-08-21T15:14:38.355Z,100244.09
2022-08-21T15:17:09.868Z,100246.66
2022-08-21T15:19:39.576Z,100235.44
2022-08-21T15:22:15.480Z,100251.06
2022-08-21T15:24:48.884Z,100245.38
2022-08-21T15:27:20.865Z,100244.56
2022-08-21T15:29:50.128Z,100240.94
2022-08-21T15:32:24.780Z,100240.28
2022-08-21T15:34:54.839Z,100228.03
2022-08-21T15:37:24.996Z,100241.53
2022-08-21T15:39:55.307Z,100241.66
2022-08-21T15:42:27.870Z,100241.53
2022-08-21T15:44:58.555Z,100241.28
2022-08-21T15:47:32.191Z,100246.31
2022-08-21T15:50:01.585Z,100241.41
2022-08-21T15:52:30.879Z,100237.44
2022-08-21T15:55:00.137Z,100243.22
2022-08-21T15:57:30.036Z,100239.34
2022-08-21T16:00:08.926Z,100243.53
2022-08-21T16:02:45.995Z,100242.38
2022-08-21T16:05:17.558Z,100243.09
2022-08-21T16:07:47.832Z,100245.41
2022-08-21T16:10:18.503Z,100248.53
2022-08-21T16:12:51.815Z,100244.59
2022-08-21T16:15:21.638Z,100244.28
2022-08-21T16:17:54.233Z,100242.94
2022-08-21T16:20:27.002Z,100246.09
2022-08-21T16:22:58.491Z,100243.25
2022-08-21T16:25:28.320Z,100240.16
2022-08-21T16:28:02.403Z,100242.75
2022-08-21T16:30:34.553Z,100247.63
2022-08-21T16:33:08.696Z,100248.03
2022-08-21T16:35:37.979Z,100246.75
2022-08-21T16:38:07.502Z,100243.66
2022-08-21T16:40:37.725Z,100240.09
2022-08-21T16:43:06.955Z,100234.22
2022-08-21T16:45:36.038Z,100243.16
2022-08-21T16:48:09.830Z,100232.00
2022-08-21T16:50:39.669Z,100233.41
2022-08-21T16:53:09.237Z,100231.09
2022-08-21T16:55:39.573Z,100234.38
2022-08-21T16:58:19.715Z,100238.34
2022-08-21T17:00:49.688Z,100241.69
2022-08-21T17:03:23.014Z,100247.38
2022-08-21T17:05:52.181Z,100240.94
2022-08-21T17:08:21.463Z,100249.28
2022-08-21T17:10:52.265Z,100247.03
2022-08-21T17:13:21.712Z,100245.78
2022-08-21T17:15:50.886Z,100241.44
2022-08-21T17:18:24.251Z,100245.19
2022-08-21T17:20:54.182Z,100248.69
2022-08-21T17:23:23.490Z,100243.38
2022-08-21T17:25:55.011Z,100246.88
2022-08-21T17:28:26.777Z,100255.81
2022-08-21T17:30:59.185Z,100251.56
2022-08-21T17:33:35.327Z,100246.03
2022-08-21T17:36:04.941Z,100251.84
2022-08-21T17:38:34.298Z,100250.72
2022-08-21T17:41:03.973Z,100247.00
2022-08-21T17:43:34.103Z,100240.84
2022-08-21T17:46:03.216Z,100237.13
2022-08-21T17:48:33.943Z,100241.25
2022-08-21T17:51:08.482Z,100246.63
2022-08-21T17:53:40.598Z,100241.47
2022-08-21T17:56:09.854Z,100242.97
2022-08-21T17:58:40.488Z,100243.34
2022-08-21T18:01:12.285Z,100244.53
2022-08-21T18:03:42.933Z,100239.59
2022-08-21T18:06:16.887Z,100245.84
2022-08-21T18:08:47.158Z,100245.59
2022-08-21T18:11:23.557Z,100240.97
2022-08-21T18:13:54.175Z,100242.28
2022-08-21T18:16:24.171Z,100245.56
2022-08-21T18:18:54.863Z,100243.94
2022-08-21T18:21:24.720Z,100236.72
2022-08-21T18:23:56.040Z,100234.84
2022-08-21T18:26:29.471Z,100244.84
2022-08-21T18:29:01.622Z,100243.28
2022-08-21T18:31:32.478Z,100238.16
2022-08-21T18:34:07.416Z,100231.88
2022-08-21T18:36:36.502Z,100237.94
2022-08-21T18:39:34.407Z,100233.34
2022-08-21T18:41:55.515Z,100236.06
2022-08-21T18:44:27.641Z,100238.63
2022-08-21T18:46:59.381Z,100238.56
2022-08-21T18:49:30.274Z,100241.28
2022-08-21T18:52:00.707Z,100237.50
2022-08-21T18:54:32.416Z,100241.13
2022-08-21T18:57:05.683Z,100231.69
2022-08-21T18:59:38.225Z,100228.41
2022-08-21T19:02:09.876Z,100228.41
2022-08-21T19:04:44.996Z,100219.78
2022-08-21T19:07:14.863Z,100227.63
2022-08-21T19:10:01.911Z,100223.84
2022-08-21T19:12:35.866Z,100229.16
2022-08-21T19:15:06.866Z,100226.56
2022-08-21T19:17:36.319Z,100228.72
2022-08-21T19:20:25.383Z,100224.41
2022-08-21T19:22:56.795Z,100229.78
2022-08-21T19:25:33.505Z,100235.91
2022-08-21T19:28:21.321Z,100229.63
2022-08-21T19:30:56.844Z,100231.53
2022-08-21T19:33:31.146Z,100237.31
2022-08-21T19:36:05.022Z,100228.88
2022-08-21T19:38:34.377Z,100229.44
2022-08-21T19:41:04.517Z,100228.06
2022-08-21T19:43:39.296Z,100227.31
2022-08-21T19:46:08.611Z,100224.97
2022-08-21T19:48:38.674Z,100223.75
2022-08-21T19:51:11.289Z,100230.53
2022-08-21T19:53:41.452Z,100232.75
2022-08-21T19:56:19.062Z,100227.31
2022-08-21T19:58:50.017Z,100232.44
2022-08-21T20:01:20.944Z,100234.97
2022-08-21T20:03:54.131Z,100228.59
2022-08-21T20:06:25.551Z,100229.34
2022-08-21T20:08:56.143Z,100227.44
2022-08-21T20:11:31.766Z,100236.94
2022-08-21T20:14:02.888Z,100228.50
2022-08-21T20:16:32.692Z,100236.28
2022-08-21T20:19:03.651Z,100232.66
2022-08-21T20:21:43.879Z,100233.97
2022-08-21T20:24:15.430Z,100235.22
2022-08-21T20:26:48.791Z,100235.06
2022-08-21T20:29:24.532Z,100235.84
2022-08-21T20:32:12.277Z,100234.13
2022-08-21T20:34:45.097Z,100239.63
2022-08-21T20:37:35.879Z,100240.91
2022-08-21T20:43:00.822Z,100236.94
2022-08-21T20:45:34.032Z,100233.31
2022-08-21T20:48:06.816Z,100234.56
2022-08-21T20:50:39.547Z,100240.34
2022-08-21T20:53:23.733Z,100239.13
2022-08-21T20:55:53.348Z,100245.25
2022-08-21T20:58:33.403Z,100238.81
2022-08-21T21:01:08.649Z,100250.81
2022-08-21T21:03:42.662Z,100245.88
2022-08-21T21:06:17.895Z,100251.69
2022-08-21T21:08:53.356Z,100245.06
2022-08-21T21:11:31.871Z,100250.94
2022-08-21T21:14:06.835Z,100246.72
2022-08-21T21:16:50.549Z,100254.94
2022-08-21T21:19:27.408Z,100254.94
2022-08-21T21:22:01.946Z,100244.38
2022-08-21T21:24:39.154Z,100237.09
2022-08-21T21:27:12.758Z,100239.59
2022-08-21T21:29:51.658Z,100244.59
2022-08-21T21:32:21.286Z,100241.56
2022-08-21T21:34:51.383Z,100240.47
2022-08-21T21:37:26.728Z,100240.81
2022-08-21T21:40:05.821Z,100245.34
2022-08-21T21:42:46.311Z,100240.50
2022-08-21T21:45:25.124Z,100250.84
2022-08-21T21:48:07.605Z,100249.84
2022-08-21T21:50:52.763Z,100242.34
2022-08-21T21:53:37.825Z,100254.50
2022-08-21T21:56:19.802Z,100247.44
2022-08-21T21:59:17.120Z,100248.75
2022-08-21T22:01:52.656Z,100246.22
2022-08-21T22:04:28.690Z,100251.72
2022-08-21T22:07:07.471Z,100243.88
2022-08-21T22:09:44.541Z,100247.91
2022-08-21T22:12:32.275Z,100239.50
2022-08-21T22:15:01.676Z,100244.22
2022-08-21T22:17:41.184Z,100251.44
2022-08-21T22:20:16.070Z,100251.81
2022-08-21T22:22:46.161Z,100238.41
2022-08-21T22:25:20.844Z,100248.81
2022-08-21T22:28:00.561Z,100251.53
2022-08-21T22:30:43.104Z,100254.25
2022-08-21T22:33:20.136Z,100248.25
2022-08-21T22:38:40.352Z,100248.88
2022-08-21T22:44:12.023Z,100246.59
2022-08-21T22:46:46.732Z,100251.66
2022-08-21T22:49:29.908Z,100249.66
2022-08-21T22:52:13.611Z,100254.38
2022-08-21T22:57:36.603Z,100251.66
2022-08-21T23:00:13.014Z,100250.03
2022-08-21T23:02:57.420Z,100251.94
2022-08-21T23:05:34.732Z,100250.41
2022-08-21T23:08:24.360Z,100248.59
2022-08-21T23:10:59.771Z,100255.69
2022-08-21T23:13:38.956Z,100248.59
2022-08-21T23:16:30.969Z,100248.59
2022-08-21T23:19:07.608Z,100257.22
2022-08-21T23:21:43.944Z,100258.75
2022-08-21T23:24:39.438Z,100258.53
2022-08-21T23:27:24.167Z,100261.09
2022-08-21T23:30:03.347Z,100264.66
2022-08-21T23:32:56.336Z,100260.91
2022-08-21T23:35:51.232Z,100260.63
2022-08-21T23:38:32.627Z,100264.28
2022-08-21T23:41:11.682Z,100257.06
2022-08-21T23:43:52.024Z,100257.97
2022-08-21T23:46:46.661Z,100261.44
2022-08-21T23:49:30.921Z,100256.88
2022-08-21T23:52:07.015Z,100265.81
2022-08-21T23:54:47.706Z,100263.94
2022-08-21T23:57:31.641Z,100268.31
